createdAt,value
2022-09-26T00:01:36.299Z,73.51
2022-09-26T00:04:07.935Z,73.63
2022-09-26T00:06:34.406Z,73.75
2022-09-26T00:09:00.930Z,73.87
2022-09-26T00:11:31.109Z,73.89
2022-09-26T00:14:03.243Z,73.94
2022-09-26T00:16:29.743Z,73.95
2022-09-26T00:18:58.292Z,73.95
2022-09-26T00:21:26.631Z,73.85
2022-09-26T00:23:53.803Z,73.76
2022-09-26T00:26:22.476Z,73.70
2022-09-26T00:28:49.555Z,73.66
2022-09-26T00:31:24.586Z,73.70
2022-09-26T00:33:51.136Z,73.89
2022-09-26T00:36:17.786Z,74.05
2022-09-26T00:38:44.608Z,74.20
2022-09-26T00:41:12.195Z,74.36
2022-09-26T00:43:54.347Z,74.34
2022-09-26T00:46:36.885Z,74.32
2022-09-26T00:49:15.343Z,74.42
2022-09-26T00:51:48.282Z,74.64
2022-09-26T00:54:17.307Z,74.78
2022-09-26T00:56:46.786Z,74.85
2022-09-26T00:59:25.236Z,74.96
2022-09-26T01:01:53.054Z,75.02
2022-09-26T01:04:20.410Z,75.13
2022-09-26T01:06:47.096Z,75.10
2022-09-26T01:09:14.584Z,75.09
2022-09-26T01:11:42.683Z,75.17
2022-09-26T01:14:12.208Z,75.14
2022-09-26T01:16:40.337Z,75.02
2022-09-26T01:19:52.002Z,75.06
2022-09-26T01:22:48.493Z,75.13
2022-09-26T01:25:57.926Z,75.22
2022-09-26T01:29:04.134Z,75.33
2022-09-26T01:32:36.926Z,75.33
2022-09-26T01:35:27.531Z,75.42
2022-09-26T01:38:34.534Z,75.57
2022-09-26T01:41:28.552Z,75.65
2022-09-26T01:44:13.138Z,75.70
2022-09-26T01:46:54.151Z,75.75
2022-09-26T01:49:30.749Z,75.79
2022-09-26T01:52:38.465Z,75.72
2022-09-26T01:55:18.011Z,75.68
2022-09-26T01:57:52.150Z,75.65
2022-09-26T02:00:19.309Z,75.73
2022-09-26T02:02:48.145Z,75.84
2022-09-26T02:05:28.353Z,75.93
2022-09-26T02:08:12.395Z,75.98
2022-09-26T02:10:46.987Z,76.02
2022-09-26T02:13:18.877Z,76.01
2022-09-26T02:15:52.072Z,76.07
2022-09-26T02:18:30.163Z,76.07
2022-09-26T02:21:11.553Z,76.13
2022-09-26T02:23:38.209Z,75.88
2022-09-26T02:26:05.198Z,75.73
2022-09-26T02:28:31.853Z,76.38
2022-09-26T02:31:00.669Z,76.91
2022-09-26T02:33:28.449Z,77.29
2022-09-26T02:35:55.129Z,77.74
2022-09-26T02:38:28.028Z,78.10
2022-09-26T02:41:17.970Z,78.24
2022-09-26T02:44:13.734Z,77.88
2022-09-26T02:47:10.162Z,77.42
2022-09-26T02:50:07.773Z,77.59
2022-09-26T02:53:15.056Z,78.18
2022-09-26T02:56:16.783Z,78.78
2022-09-26T02:59:05.942Z,79.18
2022-09-26T03:01:59.657Z,79.52
2022-09-26T03:04:45.067Z,79.84
2022-09-26T03:07:18.493Z,80.03
2022-09-26T03:09:46.188Z,80.20
2022-09-26T03:12:13.169Z,80.32
2022-09-26T03:14:42.147Z,80.43
2022-09-26T03:17:09.561Z,80.45
2022-09-26T03:19:45.926Z,80.35
2022-09-26T03:22:14.513Z,80.14
2022-09-26T03:24:42.307Z,79.90
2022-09-26T03:27:11.535Z,79.70
2022-09-26T03:29:41.332Z,79.54
2022-09-26T03:32:09.042Z,79.47
2022-09-26T03:34:39.173Z,79.43
2022-09-26T03:37:06.138Z,79.44
2022-09-26T03:39:32.604Z,79.44
2022-09-26T03:41:58.979Z,79.41
2022-09-26T03:44:25.370Z,79.42
2022-09-26T03:46:51.852Z,79.47
2022-09-26T03:49:18.281Z,79.55
2022-09-26T03:51:45.435Z,79.62
2022-09-26T03:54:12.974Z,79.34
2022-09-26T03:56:40.545Z,79.18
2022-09-26T03:59:08.490Z,79.05
2022-09-26T04:01:35.121Z,78.59
2022-09-26T04:04:02.240Z,78.26
2022-09-26T04:06:28.739Z,78.06
2022-09-26T04:08:55.915Z,78.04
2022-09-26T04:11:23.917Z,78.10
2022-09-26T04:13:53.186Z,78.36
2022-09-26T04:16:21.955Z,78.59
2022-09-26T04:18:48.783Z,78.83
2022-09-26T04:21:16.148Z,79.02
2022-09-26T04:23:43.621Z,79.40
2022-09-26T04:26:22.547Z,79.51
2022-09-26T04:28:54.025Z,79.65
2022-09-26T04:31:21.285Z,79.50
2022-09-26T04:33:48.506Z,79.45
2022-09-26T04:36:16.653Z,79.62
2022-09-26T04:38:43.711Z,80.25
2022-09-26T04:41:13.564Z,80.30
2022-09-26T04:43:40.792Z,80.52
2022-09-26T04:46:10.467Z,80.78
2022-09-26T04:48:37.533Z,80.99
2022-09-26T04:51:06.664Z,81.15
2022-09-26T04:53:34.653Z,81.26
2022-09-26T04:56:02.075Z,81.36
2022-09-26T04:58:29.036Z,81.38
2022-09-26T05:00:55.886Z,81.43
2022-09-26T05:03:22.513Z,81.45
2022-09-26T05:05:49.530Z,81.24
2022-09-26T05:08:16.714Z,81.01
2022-09-26T05:10:44.565Z,80.84
2022-09-26T05:13:11.081Z,80.84
2022-09-26T05:15:39.399Z,80.84
2022-09-26T05:18:07.889Z,80.83
2022-09-26T05:20:35.337Z,80.78
2022-09-26T05:23:03.511Z,80.81
2022-09-26T05:25:55.298Z,80.94
2022-09-26T05:28:22.481Z,81.05
2022-09-26T05:30:51.241Z,81.34
2022-09-26T05:33:19.660Z,81.59
2022-09-26T05:36:00.023Z,81.74
2022-09-26T05:38:27.500Z,81.77
2022-09-26T05:40:56.881Z,81.71
2022-09-26T05:43:35.461Z,81.41
2022-09-26T05:46:08.358Z,81.21
2022-09-26T05:48:37.066Z,81.10
2022-09-26T05:51:10.351Z,81.12
2022-09-26T05:53:37.166Z,81.25
2022-09-26T05:56:05.592Z,81.34
2022-09-26T05:58:35.471Z,81.44
2022-09-26T06:01:07.999Z,81.55
2022-09-26T06:03:35.145Z,81.67
2022-09-26T06:06:16.059Z,81.81
2022-09-26T06:08:43.651Z,81.89
2022-09-26T06:11:14.016Z,81.95
2022-09-26T06:13:45.020Z,82.00
2022-09-26T06:16:18.579Z,82.01
2022-09-26T06:18:46.469Z,82.05
2022-09-26T06:21:16.530Z,82.10
2022-09-26T06:23:43.772Z,82.13
2022-09-26T06:26:21.038Z,82.08
2022-09-26T06:28:49.893Z,81.98
2022-09-26T06:31:18.404Z,81.96
2022-09-26T06:33:53.224Z,82.08
2022-09-26T06:36:21.310Z,81.97
2022-09-26T06:38:48.365Z,82.05
2022-09-26T06:41:18.820Z,82.09
2022-09-26T06:43:46.887Z,82.00
2022-09-26T06:46:14.594Z,81.76
2022-09-26T06:48:42.032Z,81.56
2022-09-26T06:51:09.395Z,81.55
2022-09-26T06:53:35.875Z,81.52
2022-09-26T06:56:02.493Z,81.46
2022-09-26T06:58:28.981Z,81.35
2022-09-26T07:00:57.500Z,81.23
2022-09-26T07:03:25.992Z,81.14
2022-09-26T07:05:56.391Z,81.05
2022-09-26T07:08:37.664Z,80.96
2022-09-26T07:11:32.638Z,80.85
2022-09-26T07:14:01.340Z,80.72
2022-09-26T07:16:28.637Z,80.66
2022-09-26T07:18:55.923Z,80.51
2022-09-26T07:21:22.414Z,80.40
2022-09-26T07:23:49.008Z,80.22
2022-09-26T07:26:15.442Z,79.94
2022-09-26T07:28:41.903Z,79.82
2022-09-26T07:31:08.319Z,79.78
2022-09-26T07:33:35.017Z,79.69
2022-09-26T07:36:05.309Z,79.67
2022-09-26T07:38:32.276Z,79.60
2022-09-26T07:41:00.129Z,79.59
2022-09-26T07:43:45.451Z,79.37
2022-09-26T07:46:31.769Z,79.18
2022-09-26T07:49:16.930Z,79.07
2022-09-26T07:51:43.557Z,79.09
2022-09-26T07:54:10.471Z,79.14
2022-09-26T07:56:38.522Z,79.15
2022-09-26T07:59:05.426Z,79.17
2022-09-26T08:01:42.221Z,79.28
2022-09-26T08:04:11.340Z,79.17
2022-09-26T08:06:37.911Z,79.03
2022-09-26T08:09:04.369Z,78.93
2022-09-26T08:11:30.956Z,78.74
2022-09-26T08:13:58.563Z,78.40
2022-09-26T08:16:26.855Z,77.90
2022-09-26T08:18:56.281Z,77.78
2022-09-26T08:21:23.448Z,77.46
2022-09-26T08:23:50.088Z,77.28
2022-09-26T08:26:20.842Z,77.05
2022-09-26T08:28:47.589Z,76.92
2022-09-26T08:31:15.823Z,76.89
2022-09-26T08:33:43.515Z,76.75
2022-09-26T08:36:12.718Z,76.65
2022-09-26T08:38:39.334Z,76.41
2022-09-26T08:41:31.933Z,76.24
2022-09-26T08:44:29.534Z,75.91
2022-09-26T08:47:09.484Z,75.73
2022-09-26T08:49:54.252Z,75.66
2022-09-26T08:52:23.165Z,75.49
2022-09-26T08:54:51.108Z,75.33
2022-09-26T08:57:23.654Z,75.39
2022-09-26T08:59:50.252Z,75.24
2022-09-26T09:02:33.873Z,75.05
2022-09-26T09:05:06.828Z,74.75
2022-09-26T09:07:33.619Z,74.41
2022-09-26T09:10:05.890Z,73.88
2022-09-26T09:12:48.557Z,73.75
2022-09-26T09:15:56.324Z,73.81
2022-09-26T09:18:41.904Z,73.32
2022-09-26T09:21:41.761Z,73.25
2022-09-26T09:24:43.120Z,72.99
2022-09-26T09:27:53.131Z,72.66
2022-09-26T09:30:49.520Z,72.92
2022-09-26T09:33:27.055Z,72.34
2022-09-26T09:36:11.741Z,71.79
2022-09-26T09:38:47.929Z,71.45
2022-09-26T09:41:39.745Z,71.21
2022-09-26T09:44:45.635Z,71.28
2022-09-26T09:47:18.176Z,71.41
2022-09-26T09:49:48.129Z,70.28
2022-09-26T09:53:05.774Z,69.63
2022-09-26T09:56:02.227Z,69.31
2022-09-26T09:59:03.254Z,68.66
2022-09-26T10:01:44.003Z,68.50
2022-09-26T10:04:42.004Z,68.68
2022-09-26T10:07:09.101Z,68.68
2022-09-26T10:09:41.381Z,68.22
2022-09-26T10:12:23.692Z,67.87
2022-09-26T10:15:02.633Z,67.55
2022-09-26T10:17:32.481Z,67.48
2022-09-26T10:20:00.962Z,66.94
2022-09-26T10:22:37.673Z,67.32
2022-09-26T10:25:21.541Z,67.17
2022-09-26T10:27:59.836Z,66.46
2022-09-26T10:30:48.241Z,66.13
2022-09-26T10:33:26.918Z,65.35
2022-09-26T10:36:11.609Z,65.10
2022-09-26T10:39:10.627Z,64.85
2022-09-26T10:41:41.083Z,64.49
2022-09-26T10:44:47.872Z,64.19
2022-09-26T10:47:25.043Z,64.42
2022-09-26T10:50:16.736Z,63.86
2022-09-26T10:53:13.173Z,62.84
2022-09-26T10:55:57.738Z,63.02
2022-09-26T10:58:29.149Z,62.79
2022-09-26T11:00:59.821Z,62.91
2022-09-26T11:03:43.964Z,62.76
2022-09-26T11:06:34.139Z,62.57
2022-09-26T11:09:03.100Z,62.51
2022-09-26T11:11:39.782Z,62.62
2022-09-26T11:14:08.928Z,62.74
2022-09-26T11:16:53.354Z,62.60
2022-09-26T11:19:34.691Z,62.65
2022-09-26T11:22:08.396Z,62.79
2022-09-26T11:25:11.428Z,62.91
2022-09-26T11:28:06.485Z,63.18
2022-09-26T11:30:37.581Z,63.15
2022-09-26T11:33:11.401Z,63.46
2022-09-26T11:35:44.228Z,63.69
2022-09-26T11:38:21.600Z,63.90
2022-09-26T11:41:38.015Z,63.77
2022-09-26T11:44:37.787Z,62.86
2022-09-26T11:47:19.155Z,62.76
2022-09-26T11:50:02.836Z,63.28
2022-09-26T11:53:01.923Z,63.88
2022-09-26T11:56:03.580Z,64.48
2022-09-26T11:59:10.576Z,65.88
2022-09-26T12:02:21.961Z,67.22
2022-09-26T12:05:27.655Z,67.28
2022-09-26T12:08:47.138Z,66.06
2022-09-26T12:11:32.200Z,66.69
2022-09-26T12:14:09.609Z,67.17
2022-09-26T12:17:14.479Z,67.20
2022-09-26T12:20:13.454Z,67.89
2022-09-26T12:22:59.822Z,68.74
2022-09-26T12:25:41.390Z,69.48
2022-09-26T12:28:19.760Z,69.81
2022-09-26T12:31:04.843Z,69.67
2022-09-26T12:33:58.562Z,69.44
2022-09-26T12:36:50.364Z,69.34
2022-09-26T12:39:42.360Z,69.07
2022-09-26T12:42:48.597Z,69.50
2022-09-26T12:45:21.521Z,70.14
2022-09-26T12:47:58.453Z,70.16
2022-09-26T12:50:56.529Z,69.74
2022-09-26T12:53:36.206Z,70.51
2022-09-26T12:56:33.985Z,71.29
2022-09-26T12:59:08.501Z,71.85
2022-09-26T13:02:04.864Z,72.38
2022-09-26T13:05:05.484Z,72.35
2022-09-26T13:07:35.299Z,71.28
2022-09-26T13:10:21.979Z,71.11
2022-09-26T13:12:53.966Z,70.94
2022-09-26T13:15:30.763Z,70.98
2022-09-26T13:18:26.335Z,71.25
2022-09-26T13:21:02.610Z,70.83
2022-09-26T13:23:53.013Z,71.25
2022-09-26T13:26:31.422Z,69.94
2022-09-26T13:29:17.952Z,67.86
2022-09-26T13:32:15.759Z,66.22
2022-09-26T13:35:06.100Z,64.97
2022-09-26T13:37:56.624Z,63.73
2022-09-26T13:41:30.908Z,63.24
2022-09-26T13:44:36.959Z,62.17
2022-09-26T13:47:35.722Z,61.37
2022-09-26T13:50:25.797Z,60.27
2022-09-26T13:53:06.225Z,60.13
2022-09-26T13:55:33.804Z,59.56
2022-09-26T13:58:20.396Z,59.29
2022-09-26T14:00:53.499Z,59.22
2022-09-26T14:03:21.091Z,59.88
2022-09-26T14:05:54.593Z,60.20
2022-09-26T14:08:42.684Z,59.52
2022-09-26T14:11:29.652Z,58.88
2022-09-26T14:14:17.840Z,58.53
2022-09-26T14:16:46.154Z,58.69
2022-09-26T14:19:35.724Z,58.58
2022-09-26T14:22:25.464Z,58.20
2022-09-26T14:24:53.690Z,58.21
2022-09-26T14:27:37.449Z,57.92
2022-09-26T14:30:32.972Z,58.03
2022-09-26T14:33:09.343Z,58.72
2022-09-26T14:35:38.091Z,58.84
2022-09-26T14:38:16.292Z,58.70
2022-09-26T14:40:59.253Z,58.78
2022-09-26T14:43:30.082Z,59.11
2022-09-26T14:46:17.497Z,58.89
2022-09-26T14:48:47.629Z,59.19
2022-09-26T14:51:46.157Z,59.41
2022-09-26T14:54:44.865Z,59.77
2022-09-26T14:57:47.793Z,59.81
2022-09-26T15:01:08.071Z,60.12
2022-09-26T15:03:41.485Z,60.40
2022-09-26T15:06:17.979Z,60.83
2022-09-26T15:08:44.900Z,61.29
2022-09-26T15:11:29.721Z,61.45
2022-09-26T15:14:31.280Z,61.95
2022-09-26T15:17:00.769Z,62.97
2022-09-26T15:19:37.313Z,63.34
2022-09-26T15:22:16.839Z,63.42
2022-09-26T15:24:45.234Z,63.45
2022-09-26T15:27:20.477Z,63.62
2022-09-26T15:29:54.758Z,63.44
2022-09-26T15:32:29.369Z,63.28
2022-09-26T15:35:04.693Z,63.56
2022-09-26T15:37:35.783Z,63.61
2022-09-26T15:40:17.856Z,63.75
2022-09-26T15:43:01.356Z,63.98
2022-09-26T15:45:48.580Z,64.30
2022-09-26T15:48:20.418Z,64.54
2022-09-26T15:51:05.280Z,64.58
2022-09-26T15:53:52.879Z,64.60
2022-09-26T15:56:38.244Z,64.59
2022-09-26T15:59:40.725Z,64.91
2022-09-26T16:02:30.051Z,64.99
2022-09-26T16:04:57.959Z,64.97
2022-09-26T16:07:39.646Z,65.07
2022-09-26T16:10:27.978Z,65.15
2022-09-26T16:13:00.097Z,65.33
2022-09-26T16:15:29.502Z,65.48
2022-09-26T16:18:01.107Z,65.53
2022-09-26T16:20:30.596Z,65.53
2022-09-26T16:23:05.301Z,65.67
2022-09-26T16:25:48.946Z,65.64
2022-09-26T16:28:17.148Z,65.66
2022-09-26T16:30:54.227Z,65.70
2022-09-26T16:33:32.700Z,65.76
2022-09-26T16:37:02.556Z,65.97
2022-09-26T16:39:55.669Z,66.19
2022-09-26T16:42:25.510Z,66.36
2022-09-26T16:44:59.785Z,66.54
2022-09-26T16:47:44.083Z,66.66
2022-09-26T16:50:39.826Z,67.20
2022-09-26T16:53:11.967Z,67.65
2022-09-26T16:55:38.722Z,67.93
2022-09-26T16:58:11.563Z,68.13
2022-09-26T17:00:58.567Z,68.38
2022-09-26T17:03:53.348Z,68.52
2022-09-26T17:06:20.720Z,68.72
2022-09-26T17:08:47.988Z,68.89
2022-09-26T17:11:16.322Z,69.09
2022-09-26T17:13:51.097Z,69.31
2022-09-26T17:16:21.464Z,69.52
2022-09-26T17:18:52.773Z,69.83
2022-09-26T17:21:24.897Z,70.09
2022-09-26T17:23:54.253Z,70.35
2022-09-26T17:26:35.169Z,70.55
2022-09-26T17:29:43.926Z,70.89
2022-09-26T17:32:48.834Z,71.07
2022-09-26T17:35:31.856Z,71.41
2022-09-26T17:38:05.087Z,71.66
2022-09-26T17:41:14.633Z,71.73
2022-09-26T17:43:42.712Z,71.90
2022-09-26T17:46:37.863Z,72.22
2022-09-26T17:49:26.516Z,72.39
2022-09-26T17:52:18.701Z,72.72
2022-09-26T17:54:48.229Z,73.00
2022-09-26T17:57:41.573Z,73.17
2022-09-26T18:00:17.795Z,73.27
2022-09-26T18:02:49.834Z,73.49
2022-09-26T18:05:32.973Z,73.60
2022-09-26T18:08:13.715Z,73.84
2022-09-26T18:11:14.250Z,73.89
2022-09-26T18:24:01.074Z,74.02
2022-09-26T18:27:11.472Z,74.23
2022-09-26T18:29:45.587Z,74.33
2022-09-26T18:37:22.087Z,74.75
2022-09-26T18:40:39.309Z,75.07
2022-09-26T18:42:48.837Z,75.43
2022-09-26T18:45:42.823Z,75.68
2022-09-26T18:49:14.453Z,75.90
2022-09-26T20:18:55.759Z,80.78
2022-09-26T20:21:49.413Z,80.51
2022-09-26T20:33:55.943Z,79.91
2022-09-26T20:37:34.235Z,79.66
2022-09-26T20:40:49.477Z,79.98
2022-09-26T20:47:31.561Z,80.47
2022-09-26T20:50:17.577Z,80.53
2022-09-26T21:03:27.161Z,80.70
2022-09-26T21:06:04.605Z,80.54
2022-09-26T21:12:47.508Z,80.55
2022-09-26T22:21:50.843Z,85.02
2022-09-26T22:24:20.398Z,84.84
2022-09-26T22:26:47.755Z,84.66
2022-09-26T22:29:15.071Z,84.41
2022-09-26T22:31:43.194Z,84.20
2022-09-26T22:34:12.576Z,83.98
2022-09-26T22:36:39.497Z,83.84
2022-09-26T22:39:07.905Z,83.85
2022-09-26T22:41:34.925Z,83.60
2022-09-26T22:44:03.408Z,83.58
2022-09-26T22:46:34.169Z,83.51
2022-09-26T22:49:05.641Z,83.36
2022-09-26T22:51:32.776Z,83.35
2022-09-26T22:53:59.786Z,83.37
2022-09-26T22:56:27.378Z,83.51
2022-09-26T22:58:54.592Z,83.68
2022-09-26T23:01:27.442Z,83.67
2022-09-26T23:03:57.978Z,83.53
2022-09-26T23:06:27.326Z,83.50
2022-09-26T23:08:55.618Z,83.49
2022-09-26T23:11:25.507Z,83.53
2022-09-26T23:13:53.131Z,83.59
2022-09-26T23:16:23.091Z,83.68
2022-09-26T23:18:54.419Z,83.76
2022-09-26T23:21:27.402Z,83.84
2022-09-26T23:23:55.709Z,84.05
2022-09-26T23:26:29.036Z,84.05
2022-09-26T23:29:08.797Z,84.14
2022-09-26T23:31:35.763Z,84.25
2022-09-26T23:34:03.063Z,84.32
2022-09-26T23:36:30.025Z,84.42
2022-09-26T23:38:57.518Z,84.47
2022-09-26T23:41:24.362Z,84.49
2022-09-26T23:43:51.710Z,84.53
2022-09-26T23:46:18.537Z,84.60
2022-09-26T23:48:45.574Z,84.65
2022-09-26T23:51:12.152Z,84.62
2022-09-26T23:53:38.767Z,84.56
2022-09-26T23:56:11.961Z,84.56
2022-09-26T23:58:39.256Z,84.57
